Time;durP1;ratioP1;P1;durP2;ratioP2;P2;SDS_P1;SDS_P2;PMS_P1;PMS_P2;Temp;Humidity;BMP_temperature;BMP_pressure;BME280_temperature;BME280_humidity;BME280_pressure;Samples;Min_cycle;Max_cycle;Signal;HPM_P1;HPM_P2
2021/09/05 00:01:24;;;;;;;11.02;5.72;;;;;;;7.38;73.81;99296.84;5133904;27;20354;-76
2021/09/05 00:03:50;;;;;;;10.48;5.55;;;;;;;7.43;74.02;99293.91;5133798;27;20054;-76
2021/09/05 00:06:16;;;;;;;10.48;5.53;;;;;;;7.42;74.29;99308.81;5134135;27;20039;-75
2021/09/05 00:08:43;;;;;;;12.70;5.88;;;;;;;7.37;73.67;99296.97;5115719;27;20452;-78
2021/09/05 00:11:10;;;;;;;11.80;5.75;;;;;;;7.55;73.96;99303.56;5133468;27;20043;-76
2021/09/05 00:13:36;;;;;;;8.05;4.97;;;;;;;7.52;72.97;99300.31;5134010;27;20039;-77
2021/09/05 00:16:02;;;;;;;8.73;4.72;;;;;;;7.44;72.80;99303.47;5115243;27;20039;-75
2021/09/05 00:18:27;;;;;;;13.32;5.82;;;;;;;7.13;72.95;99303.81;5132614;27;20030;-74
2021/09/05 00:20:53;;;;;;;8.35;4.38;;;;;;;6.96;74.35;99302.31;5132463;27;20412;-76
2021/09/05 00:23:19;;;;;;;10.82;4.75;;;;;;;6.79;74.20;99307.88;5132796;27;20172;-75
2021/09/05 00:25:44;;;;;;;7.97;4.22;;;;;;;6.67;74.17;99311.31;5133013;27;20111;-74
2021/09/05 00:28:10;;;;;;;11.18;4.63;;;;;;;6.58;73.85;99315.41;5131995;27;20043;-74
2021/09/05 00:30:48;;;;;;;6.80;3.50;;;;;;;6.52;74.77;99315.81;5125788;27;20071;-74
2021/09/05 00:33:14;;;;;;;15.30;4.93;;;;;;;6.57;74.94;99311.97;5114261;27;20039;-73
2021/09/05 00:35:40;;;;;;;8.85;5.35;;;;;;;6.70;74.25;99322.47;5131971;27;20087;-75
2021/09/05 00:38:07;;;;;;;10.55;5.07;;;;;;;6.84;74.31;99316.31;5131607;27;20585;-73
2021/09/05 00:40:33;;;;;;;10.57;5.80;;;;;;;6.94;74.48;99314.75;5113966;27;20039;-74
2021/09/05 00:42:59;;;;;;;12.82;6.60;;;;;;;7.01;74.52;99322.22;5132234;27;20076;-73
2021/09/05 00:45:25;;;;;;;13.23;6.60;;;;;;;7.15;73.80;99327.34;5097649;27;20046;-74
2021/09/05 00:47:50;;;;;;;10.20;5.55;;;;;;;7.15;74.17;99324.72;5132049;27;20047;-76
2021/09/05 00:50:18;;;;;;;20.67;6.87;;;;;;;7.25;73.92;99328.44;5113412;27;20045;-75
2021/09/05 00:52:44;;;;;;;14.80;6.85;;;;;;;7.31;73.70;99335.03;5132123;27;20039;-72
2021/09/05 00:55:10;;;;;;;11.07;5.80;;;;;;;7.39;73.46;99337.13;5132044;27;20170;-73
2021/09/05 00:57:44;;;;;;;10.38;4.60;;;;;;;7.41;73.19;99332.63;5113671;27;20039;-74
2021/09/05 01:00:10;;;;;;;15.50;5.85;;;;;;;7.43;72.70;99334.19;5112945;27;20053;-74
2021/09/05 01:02:37;;;;;;;14.15;5.97;;;;;;;7.46;72.71;99335.75;5132338;27;20038;-73
2021/09/05 01:05:05;;;;;;;15.57;5.07;;;;;;;7.51;73.09;99341.53;5132081;27;20043;-73
2021/09/05 01:07:31;;;;;;;7.95;4.25;;;;;;;7.54;72.11;99343.13;5132657;27;20059;-72
2021/09/05 01:09:58;;;;;;;10.77;4.57;;;;;;;7.47;72.26;99340.09;5131918;27;20051;-71
2021/09/05 01:12:26;;;;;;;10.32;4.80;;;;;;;7.40;71.86;99342.31;5113409;27;20099;-74
2021/09/05 01:14:52;;;;;;;13.77;4.18;;;;;;;7.31;72.88;99353.44;5114400;27;20051;-74
2021/09/05 01:17:18;;;;;;;13.10;4.50;;;;;;;7.31;72.86;99350.00;5113951;27;20460;-75
2021/09/05 01:20:22;;;;;;;8.57;4.28;;;;;;;7.15;73.15;99351.03;5131367;27;20043;-74
2021/09/05 01:23:26;;;;;;;10.68;4.47;;;;;;;7.06;73.29;99357.75;5068186;28;20040;-74
2021/09/05 01:26:21;;;;;;;12.88;4.90;;;;;;;7.20;73.64;99359.47;5051495;28;20536;-74
2021/09/05 01:29:06;;;;;;;11.18;3.63;;;;;;;7.22;72.99;99365.44;5052411;28;20056;-76
2021/09/05 01:31:55;;;;;;;8.05;3.80;;;;;;;7.38;73.22;99364.41;5068199;28;20438;-75
2021/09/05 01:34:41;;;;;;;8.27;3.22;;;;;;;7.44;72.61;99366.63;5067039;28;20045;-75
2021/09/05 01:37:45;;;;;;;6.68;2.92;;;;;;;7.42;71.80;99373.78;5048325;28;20056;-75
2021/09/05 01:40:20;;;;;;;5.28;2.97;;;;;;;7.41;71.25;99374.72;5068341;28;20041;-75
2021/09/05 01:43:05;;;;;;;6.75;3.22;;;;;;;7.27;72.10;99381.75;5067842;28;20044;-75
2021/09/05 01:45:49;;;;;;;4.93;2.85;;;;;;;7.27;72.06;99379.13;5068179;28;20043;-74
2021/09/05 01:48:35;;;;;;;5.68;2.78;;;;;;;7.24;71.48;99384.59;5062476;28;20140;-75
2021/09/05 01:51:17;;;;;;;7.60;2.67;;;;;;;7.22;71.68;99386.50;5050672;28;20560;-74
2021/09/05 01:54:05;;;;;;;5.88;2.45;;;;;;;7.24;71.42;99389.88;5073919;28;20075;-75
2021/09/05 01:57:06;;;;;;;6.50;2.53;;;;;;;7.29;71.05;99390.41;5089492;27;20034;-74
2021/09/05 01:59:51;;;;;;;7.60;3.78;;;;;;;7.27;71.16;99387.00;5134776;27;20125;-76
2021/09/05 02:02:35;;;;;;;4.63;2.30;;;;;;;7.29;71.32;99394.81;5122056;27;20039;-76
2021/09/05 02:05:43;;;;;;;4.22;2.03;;;;;;;7.47;70.54;99399.78;5124816;27;20043;-76
2021/09/05 02:08:31;;;;;;;4.80;2.63;;;;;;;7.45;70.43;99405.13;5127560;27;20066;-75
2021/09/05 02:11:17;;;;;;;3.15;1.98;;;;;;;7.51;70.10;99406.50;5104295;27;20420;-76
2021/09/05 02:14:17;;;;;;;5.60;2.30;;;;;;;7.52;69.56;99414.28;5116979;27;20163;-76
2021/09/05 02:16:49;;;;;;;3.95;2.15;;;;;;;7.55;69.81;99414.09;5135280;27;20043;-76
2021/09/05 02:19:33;;;;;;;4.80;2.15;;;;;;;7.63;69.38;99428.47;5116846;27;20035;-75
2021/09/05 02:22:19;;;;;;;6.00;1.98;;;;;;;7.61;69.41;99423.34;5101505;27;20051;-77
2021/09/05 02:24:59;;;;;;;5.15;2.00;;;;;;;7.70;69.30;99432.38;5117104;27;20126;-74
2021/09/05 02:27:44;;;;;;;4.03;1.98;;;;;;;7.66;69.16;99430.91;5134193;27;20468;-76
2021/09/05 02:30:45;;;;;;;6.72;2.30;;;;;;;7.45;69.27;99439.31;5135624;27;20038;-73
2021/09/05 02:33:32;;;;;;;4.88;2.20;;;;;;;7.58;69.03;99434.91;5116730;27;20035;-75
2021/09/05 02:36:26;;;;;;;3.63;2.00;;;;;;;7.67;68.88;99448.41;5115703;27;20054;-75
2021/09/05 02:39:13;;;;;;;3.80;2.10;;;;;;;7.78;68.38;99448.50;5115096;27;20047;-77
2021/09/05 02:41:57;;;;;;;3.50;2.03;;;;;;;7.84;68.18;99450.72;5135104;27;20671;-78
2021/09/05 02:44:48;;;;;;;4.47;2.05;;;;;;;7.73;68.22;99453.25;5116952;27;20066;-77
2021/09/05 02:47:33;;;;;;;6.18;1.80;;;;;;;7.68;68.92;99452.72;5117175;27;20436;-77
2021/09/05 02:50:25;;;;;;;9.02;2.47;;;;;;;7.68;68.50;99463.25;5103889;27;20403;-75
2021/09/05 02:53:14;;;;;;;4.85;1.95;;;;;;;7.76;68.60;99466.19;5126217;27;20216;-75
2021/09/05 02:56:13;;;;;;;5.75;2.60;;;;;;;7.75;68.38;99469.75;5115897;27;20065;-72
2021/09/05 02:59:05;;;;;;;6.45;2.28;;;;;;;7.73;68.24;99469.03;5114026;27;20042;-72
2021/09/05 03:02:08;;;;;;;7.00;1.98;;;;;;;7.67;68.25;99475.56;5115533;27;20158;-75
2021/09/05 03:05:08;;;;;;;6.70;2.10;;;;;;;7.64;68.75;99481.03;5049704;28;20110;-74
2021/09/05 03:07:53;;;;;;;4.95;2.17;;;;;;;7.66;68.78;99481.75;5049906;28;20056;-74
2021/09/05 03:10:39;;;;;;;4.78;2.85;;;;;;;7.69;68.87;99488.59;5035431;28;20056;-77
2021/09/05 03:13:17;;;;;;;3.85;2.30;;;;;;;7.67;68.78;99490.53;5049979;28;20041;-76
2021/09/05 03:15:58;;;;;;;4.22;2.40;;;;;;;7.63;69.24;99499.56;5049821;28;20049;-76
2021/09/05 03:18:42;;;;;;;4.45;2.38;;;;;;;7.77;68.28;99499.47;5050891;28;20044;-75
2021/09/05 03:21:26;;;;;;;6.38;2.10;;;;;;;7.72;68.38;99501.56;5051076;28;20383;-78
2021/09/05 03:24:15;;;;;;;3.85;2.42;;;;;;;7.70;67.77;99511.34;5042864;28;20220;-74
2021/09/05 03:27:25;;;;;;;7.03;2.15;;;;;;;7.77;68.00;99518.72;4992656;28;20475;-74
2021/09/05 03:30:14;;;;;;;3.40;1.83;;;;;;;7.88;67.93;99514.53;4933784;29;20051;-75
2021/09/05 03:32:58;;;;;;;4.43;2.10;;;;;;;7.89;67.47;99517.06;4918454;29;20064;-76
2021/09/05 03:35:56;;;;;;;6.22;3.00;;;;;;;7.75;66.49;99523.28;4923603;29;20682;-77
2021/09/05 03:38:48;;;;;;;6.40;2.40;;;;;;;7.88;66.38;99531.16;4912540;29;20056;-76
2021/09/05 03:41:34;;;;;;;6.50;2.33;;;;;;;7.93;66.85;99531.69;4933931;28;20055;-77
2021/09/05 03:44:20;;;;;;;4.07;1.75;;;;;;;7.93;66.77;99531.69;4947112;28;20051;-77
2021/09/05 03:47:04;;;;;;;3.33;1.73;;;;;;;7.98;66.58;99539.28;4956724;28;20051;-77
2021/09/05 03:49:31;;;;;;;15.57;2.35;;;;;;;7.98;66.64;99541.09;4955546;29;20521;-76
2021/09/05 03:51:58;;;;;;;7.32;2.28;;;;;;;8.09;66.54;99549.09;4941877;28;20051;-77
2021/09/05 03:54:26;;;;;;;4.03;2.08;;;;;;;8.09;66.34;99549.91;4947112;29;20054;-78
2021/09/05 03:56:53;;;;;;;5.57;2.00;;;;;;;8.07;66.25;99543.06;4947734;28;20055;-78
2021/09/05 03:59:19;;;;;;;9.00;2.20;;;;;;;8.11;65.96;99549.81;5009979;28;20444;-75
2021/09/05 04:01:45;;;;;;;9.82;2.45;;;;;;;8.09;66.01;99543.81;5010834;28;20061;-79
2021/09/05 04:04:17;;;;;;;7.70;3.30;;;;;;;8.20;65.97;99556.22;4994046;28;20115;-74
2021/09/05 04:06:48;;;;;;;5.53;2.25;;;;;;;8.26;65.93;99554.03;5021565;28;20126;-77
2021/09/05 04:10:08;;;;;;;4.93;2.50;;;;;;;8.12;66.10;99572.56;5033226;28;20059;-75
2021/09/05 04:12:00;;;;;;;6.55;2.00;;;;;;;8.14;65.99;99564.56;5046932;28;20423;-74
2021/09/05 04:14:25;;;;;;;4.65;2.05;;;;;;;8.22;65.89;99565.75;5050724;28;20205;-79
2021/09/05 04:16:51;;;;;;;5.57;2.65;;;;;;;8.37;65.64;99566.47;5114918;27;20065;-80
2021/09/05 04:19:17;;;;;;;3.10;2.00;;;;;;;10.11;62.08;99546.78;5097560;27;20042;-74
2021/09/05 04:21:42;;;;;;;7.25;2.08;;;;;;;11.75;57.40;99549.59;5133651;27;20039;-78
2021/09/05 04:24:08;;;;;;;6.70;2.70;;;;;;;12.19;54.15;99561.88;5133108;27;20046;-78
2021/09/05 04:26:34;;;;;;;5.97;2.90;;;;;;;14.02;50.63;99563.28;5133024;27;20538;-75
2021/09/05 04:28:59;;;;;;;1.98;1.40;;;;;;;15.56;46.43;99552.09;5131728;27;20089;-76
2021/09/05 04:31:25;;;;;;;3.17;1.92;;;;;;;15.79;45.46;99562.31;5132942;27;20047;-78
2021/09/05 04:33:51;;;;;;;4.50;2.10;;;;;;;14.93;46.60;99574.28;5133063;27;20513;-75
2021/09/05 04:36:17;;;;;;;4.30;2.10;;;;;;;13.52;48.27;99576.75;5114598;27;20050;-77
2021/09/05 04:38:42;;;;;;;8.25;1.70;;;;;;;12.70;51.39;99587.50;5132896;27;20058;-76
2021/09/05 04:41:08;;;;;;;7.22;1.90;;;;;;;12.16;53.18;99588.63;5114543;27;20529;-75
2021/09/05 04:43:34;;;;;;;4.93;2.42;;;;;;;11.87;53.71;99590.09;5133485;27;20035;-78
2021/09/05 04:46:00;;;;;;;7.97;2.63;;;;;;;11.35;53.94;99603.19;5132932;27;20503;-81
2021/09/05 04:48:25;;;;;;;7.57;2.88;;;;;;;11.29;55.53;99599.25;5104964;28;20035;-74
2021/09/05 04:50:54;;;;;;;5.13;2.83;;;;;;;11.27;55.61;99605.63;5119897;27;20569;-79
2021/09/05 04:53:19;;;;;;;6.85;2.95;;;;;;;11.50;54.91;99603.75;5132484;27;20035;-78
2021/09/05 04:55:45;;;;;;;3.95;2.30;;;;;;;11.74;54.67;99608.84;5115118;27;20526;-77
2021/09/05 04:58:11;;;;;;;4.82;2.10;;;;;;;11.79;54.62;99609.28;5132077;27;20038;-79
2021/09/05 05:00:39;;;;;;;6.85;2.72;;;;;;;12.75;53.00;99606.50;5134715;27;20043;-78
2021/09/05 05:03:05;;;;;;;5.03;1.98;;;;;;;13.39;51.06;99603.59;5134648;27;20103;-80
2021/09/05 05:05:30;;;;;;;7.70;2.67;;;;;;;12.48;51.96;99616.88;5134719;27;20035;-81
2021/09/05 05:07:56;;;;;;;54.88;29.23;;;;;;;11.72;53.47;99615.22;5133513;27;20067;-82
2021/09/05 05:10:22;;;;;;;9.48;4.75;;;;;;;11.09;55.39;99626.47;5114179;27;20039;-81
2021/09/05 05:12:48;;;;;;;10.38;4.97;;;;;;;10.96;55.48;99621.34;5132521;27;20137;-77
2021/09/05 05:15:14;;;;;;;6.13;2.63;;;;;;;10.88;56.16;99626.38;5130115;27;20509;-79
2021/09/05 05:17:39;;;;;;;5.72;1.80;;;;;;;10.83;57.16;99629.41;5132237;27;20038;-78
2021/09/05 05:20:06;;;;;;;6.28;2.65;;;;;;;11.52;55.10;99627.47;5132062;27;20035;-79
2021/09/05 05:22:31;;;;;;;6.97;2.63;;;;;;;12.08;53.38;99629.06;5113546;27;20746;-77
2021/09/05 05:24:57;;;;;;;14.43;5.03;;;;;;;13.03;51.18;99617.34;5131887;27;20051;-77
2021/09/05 05:27:23;;;;;;;7.22;3.53;;;;;;;14.06;49.16;99611.72;5131106;27;20038;-78
2021/09/05 05:29:49;;;;;;;10.10;3.90;;;;;;;13.96;47.94;99617.03;5130659;27;20352;-77
2021/09/05 05:32:14;;;;;;;7.65;3.42;;;;;;;14.11;48.08;99619.25;5131833;27;20070;-78
2021/09/05 05:34:40;;;;;;;5.32;2.50;;;;;;;14.30;47.33;99613.88;5133787;27;20039;-82
2021/09/05 05:37:06;;;;;;;8.75;5.25;;;;;;;14.98;45.61;99614.66;5132718;27;20038;-83
2021/09/05 05:39:32;;;;;;;5.40;3.20;;;;;;;15.96;43.27;99612.16;5115530;27;20047;-75
2021/09/05 05:41:57;;;;;;;8.50;4.97;;;;;;;17.05;42.03;99619.78;5132888;27;20043;-78
2021/09/05 05:44:24;;;;;;;4.07;2.20;;;;;;;17.85;39.05;99624.59;5113534;27;20043;-81
2021/09/05 05:46:49;;;;;;;6.20;2.80;;;;;;;17.60;39.69;99621.91;5113918;28;20062;-83
2021/09/05 05:49:15;;;;;;;8.23;3.03;;;;;;;18.64;38.03;99623.19;5133366;28;20054;-80
2021/09/05 05:51:41;;;;;;;6.40;2.45;;;;;;;20.57;34.65;99629.63;5113715;28;20074;-81
2021/09/05 05:54:07;;;;;;;4.38;2.20;;;;;;;18.84;34.98;99635.19;5132035;27;20099;-76
2021/09/05 05:56:32;;;;;;;5.07;2.03;;;;;;;18.06;36.66;99644.72;5112550;28;20142;-77
2021/09/05 05:58:58;;;;;;;3.58;2.05;;;;;;;17.80;37.90;99637.63;5113165;27;20039;-76
2021/09/05 06:01:24;;;;;;;5.80;2.30;;;;;;;17.79;37.74;99642.16;5131733;28;20047;-77
2021/09/05 06:03:55;;;;;;;8.02;3.28;;;;;;;16.71;39.35;99642.81;5113990;28;20491;-79
2021/09/05 06:06:21;;;;;;;5.28;2.22;;;;;;;15.66;41.50;99648.00;5132948;27;20035;-79
2021/09/05 06:08:47;;;;;;;7.10;2.53;;;;;;;16.29;41.40;99649.72;5114134;28;20039;-79
2021/09/05 06:11:13;;;;;;;14.52;3.22;;;;;;;16.42;40.58;99659.16;5132554;27;20493;-79
2021/09/05 06:13:38;;;;;;;5.45;3.22;;;;;;;16.10;40.86;99649.91;5132463;28;20065;-80
2021/09/05 06:16:04;;;;;;;5.85;3.10;;;;;;;15.43;41.83;99653.78;5134264;28;20162;-77
2021/09/05 06:18:30;;;;;;;8.52;2.65;;;;;;;14.70;43.68;99662.53;5130055;28;20046;-79
2021/09/05 06:20:56;;;;;;;5.97;3.25;;;;;;;15.08;42.64;99668.72;5135282;28;20035;-80
2021/09/05 06:23:22;;;;;;;7.93;2.13;;;;;;;15.19;42.20;99662.34;5082132;28;20046;-76
2021/09/05 06:25:48;;;;;;;12.07;2.30;;;;;;;15.13;42.24;99668.28;5133756;28;20147;-84
2021/09/05 06:28:13;;;;;;;6.20;1.92;;;;;;;14.75;42.64;99673.59;5113844;28;20043;-81
2021/09/05 06:30:39;;;;;;;3.58;1.73;;;;;;;13.96;44.65;99680.84;5133857;28;20067;-80
2021/09/05 06:33:05;;;;;;;2.70;1.65;;;;;;;13.92;46.04;99684.78;5097292;27;20151;-79
2021/09/05 06:35:31;;;;;;;4.88;2.13;;;;;;;14.18;46.35;99684.19;5097207;28;20062;-78
2021/09/05 06:37:56;;;;;;;6.25;3.03;;;;;;;14.50;45.55;99675.03;5132243;27;20059;-81
2021/09/05 06:40:22;;;;;;;5.70;2.15;;;;;;;15.60;43.71;99686.78;5097992;28;20487;-80
2021/09/05 06:42:48;;;;;;;4.45;2.42;;;;;;;15.29;44.02;99689.78;5118613;27;20054;-77
2021/09/05 06:45:14;;;;;;;8.40;2.63;;;;;;;14.82;44.76;99684.53;5137087;27;20065;-79
2021/09/05 06:47:39;;;;;;;9.40;2.83;;;;;;;15.20;44.33;99693.31;5119415;27;20430;-79
2021/09/05 06:50:06;;;;;;;6.57;2.10;;;;;;;16.55;41.47;99688.09;5135917;27;20578;-80
2021/09/05 06:52:32;;;;;;;8.80;2.40;;;;;;;19.68;36.39;99690.09;5082911;27;20039;-78
2021/09/05 06:54:58;;;;;;;7.45;2.10;;;;;;;20.48;33.22;99691.50;5116740;27;20126;-81
2021/09/05 06:57:25;;;;;;;9.18;3.30;;;;;;;19.87;34.68;99695.00;5088677;27;20517;-80
2021/09/05 06:59:51;;;;;;;6.50;2.17;;;;;;;18.41;36.29;99696.22;5103232;27;20047;-81
2021/09/05 07:02:18;;;;;;;6.43;2.60;;;;;;;17.39;37.72;99704.41;5113519;27;20035;-79
2021/09/05 07:04:44;;;;;;;5.75;2.25;;;;;;;16.97;38.83;99712.25;5117931;27;20043;-77
2021/09/05 07:07:10;;;;;;;8.00;2.72;;;;;;;16.33;39.81;99708.97;5116494;27;20039;-83
2021/09/05 07:09:36;;;;;;;18.80;8.10;;;;;;;15.93;40.72;99723.63;5094975;27;20038;-82
2021/09/05 07:12:01;;;;;;;10.05;3.50;;;;;;;15.60;41.14;99729.44;5118672;27;20055;-81
2021/09/05 07:14:27;;;;;;;13.43;4.53;;;;;;;15.56;41.24;99733.38;5134442;27;20042;-79
2021/09/05 07:16:53;;;;;;;3.65;2.10;;;;;;;15.71;41.28;99736.38;5135717;27;20054;-80
2021/09/05 07:19:19;;;;;;;13.75;4.60;;;;;;;16.92;39.16;99730.59;5099812;27;20087;-82
2021/09/05 07:21:45;;;;;;;10.63;4.05;;;;;;;16.56;39.54;99730.69;5100531;27;20515;-81
2021/09/05 07:24:10;;;;;;;9.00;3.05;;;;;;;15.93;40.79;99740.47;5084532;27;20043;-77
2021/09/05 07:26:38;;;;;;;6.18;3.22;;;;;;;15.35;41.61;99742.47;5083731;27;20039;-78
2021/09/05 07:29:04;;;;;;;6.43;2.20;;;;;;;14.71;42.70;99750.25;5100830;27;20039;-80
2021/09/05 07:31:30;;;;;;;3.83;1.98;;;;;;;14.29;43.85;99750.53;5115851;27;20027;-79
2021/09/05 07:33:56;;;;;;;4.78;2.47;;;;;;;13.59;45.81;99766.56;5098948;27;20051;-78
2021/09/05 07:36:21;;;;;;;3.00;1.83;;;;;;;13.42;47.41;99768.03;5115182;27;20113;-80
2021/09/05 07:38:47;;;;;;;4.85;2.00;;;;;;;13.29;47.13;99765.59;5135665;27;20054;-82
2021/09/05 07:41:13;;;;;;;3.72;2.20;;;;;;;13.19;47.59;99772.69;5136997;27;20039;-81
2021/09/05 07:43:41;;;;;;;5.68;2.10;;;;;;;13.19;47.52;99772.69;5085657;27;20039;-83
2021/09/05 07:46:07;;;;;;;4.30;2.35;;;;;;;13.28;47.15;99782.50;5124206;27;20170;-79
2021/09/05 07:48:33;;;;;;;5.47;1.98;;;;;;;13.12;47.35;99790.94;5140161;27;20068;-80
2021/09/05 07:50:58;;;;;;;4.05;2.10;;;;;;;12.95;47.47;99793.25;5136768;27;20046;-78
2021/09/05 07:53:24;;;;;;;11.10;2.88;;;;;;;12.88;47.51;99791.25;5082775;27;20138;-80
2021/09/05 07:55:50;;;;;;;3.30;1.90;;;;;;;12.80;47.67;99797.22;5100539;27;20046;-78
2021/09/05 07:58:16;;;;;;;8.52;2.75;;;;;;;12.42;48.35;99804.75;5118368;27;20035;-79
2021/09/05 08:00:42;;;;;;;6.93;2.47;;;;;;;12.14;49.32;99804.34;5140544;27;20039;-80
2021/09/05 08:03:08;;;;;;;16.45;6.57;;;;;;;12.21;49.66;99812.66;5085553;27;20035;-82
2021/09/05 08:05:34;;;;;;;9.23;4.20;;;;;;;12.17;49.28;99813.03;5080848;27;20050;-78
2021/09/05 08:08:03;;;;;;;7.00;2.40;;;;;;;12.18;49.28;99814.72;5115319;27;20038;-81
2021/09/05 08:10:29;;;;;;;3.97;2.28;;;;;;;12.09;49.35;99811.84;5089709;27;20047;-80
2021/09/05 08:12:55;;;;;;;5.88;2.25;;;;;;;12.27;49.47;99819.25;5139639;27;20049;-81
2021/09/05 08:15:20;;;;;;;4.07;2.08;;;;;;;12.58;48.97;99824.69;5138296;27;20046;-77
2021/09/05 08:17:46;;;;;;;4.03;2.30;;;;;;;12.71;48.90;99821.84;5120770;27;20126;-79
2021/09/05 08:20:12;;;;;;;4.50;2.50;;;;;;;12.66;48.69;99819.59;5106669;27;20039;-81
2021/09/05 08:22:38;;;;;;;7.97;2.80;;;;;;;12.89;48.46;99833.56;5102658;27;20088;-83
2021/09/05 08:25:05;;;;;;;4.85;2.33;;;;;;;12.78;48.85;99839.81;5072463;27;20046;-80
2021/09/05 08:27:31;;;;;;;12.38;5.55;;;;;;;12.98;49.00;99837.25;5106188;27;20031;-81
2021/09/05 08:29:57;;;;;;;14.48;5.85;;;;;;;12.76;49.34;99840.88;5076220;27;20044;-82
2021/09/05 08:32:23;;;;;;;12.40;5.28;;;;;;;12.70;50.43;99844.91;5085203;27;20077;-82
2021/09/05 08:34:50;;;;;;;16.38;5.32;;;;;;;12.38;51.44;99847.56;5086432;27;20039;-85
2021/09/05 08:37:16;;;;;;;12.20;4.27;;;;;;;12.59;51.73;99850.25;5083416;27;20134;-85
2021/09/05 08:39:42;;;;;;;13.40;6.15;;;;;;;12.34;52.22;99860.25;5118613;27;20538;-83
2021/09/05 08:42:08;;;;;;;9.07;3.83;;;;;;;12.40;51.68;99849.13;5098896;27;20031;-82
2021/09/05 08:44:34;;;;;;;8.45;4.38;;;;;;;12.28;51.95;99863.38;5064878;27;20047;-82
2021/09/05 08:47:00;;;;;;;10.80;3.90;;;;;;;11.91;52.55;99858.34;5077821;27;20043;-83
2021/09/05 08:49:27;;;;;;;9.93;4.50;;;;;;;11.51;53.05;99857.03;5100754;27;20042;-83
2021/09/05 08:51:57;;;;;;;16.20;7.97;;;;;;;11.39;54.00;99858.00;5117946;27;20502;-84
2021/09/05 08:54:23;;;;;;;8.85;4.15;;;;;;;11.23;54.03;99866.31;5099559;27;20045;-83
2021/09/05 08:56:50;;;;;;;7.95;3.78;;;;;;;11.52;53.77;99866.69;5101583;27;20057;-81
2021/09/05 08:59:17;;;;;;;6.68;2.97;;;;;;;11.57;52.99;99874.28;5070463;27;20140;-81
2021/09/05 09:01:54;;;;;;;9.85;5.43;;;;;;;11.46;54.06;99868.03;5042014;28;20052;-81
2021/09/05 09:04:20;;;;;;;8.82;4.72;;;;;;;11.45;53.70;99866.34;5040444;28;20049;-80
2021/09/05 09:06:45;;;;;;;9.80;4.95;;;;;;;11.49;54.24;99875.72;5054507;28;20140;-83
2021/09/05 09:09:11;;;;;;;7.70;3.40;;;;;;;11.60;53.54;99874.03;5037579;28;20052;-80
2021/09/05 09:11:57;;;;;;;8.68;4.40;;;;;;;11.84;52.95;99876.56;5021970;28;20057;-84
2021/09/05 09:14:38;;;;;;;11.95;5.90;;;;;;;11.95;53.00;99873.03;5053998;28;20036;-79
2021/09/05 09:17:04;;;;;;;14.63;4.53;;;;;;;12.72;51.42;99882.78;5054394;28;20052;-81
2021/09/05 09:19:30;;;;;;;13.02;5.32;;;;;;;13.14;49.64;99870.50;5052920;28;20041;-82
2021/09/05 09:21:56;;;;;;;11.60;4.53;;;;;;;12.99;49.30;99867.31;5071400;28;20053;-80
2021/09/05 09:24:23;;;;;;;12.77;5.35;;;;;;;13.41;48.94;99875.31;5070605;28;20036;-82
2021/09/05 09:27:00;;;;;;;12.33;3.57;;;;;;;13.54;47.96;99873.25;5038444;28;20048;-81
2021/09/05 09:29:26;;;;;;;4.80;2.50;;;;;;;13.24;47.89;99876.72;5041871;28;20134;-78
2021/09/05 09:32:05;;;;;;;8.55;2.92;;;;;;;12.85;48.46;99876.47;5083317;27;20429;-78
2021/09/05 09:34:41;;;;;;;9.02;3.03;;;;;;;12.48;49.21;99875.00;5084053;27;20035;-80
2021/09/05 09:37:12;;;;;;;10.30;2.92;;;;;;;12.39;49.42;99878.44;5116475;28;20047;-81
2021/09/05 09:39:54;;;;;;;10.85;3.00;;;;;;;12.45;49.89;99877.94;5115574;27;20039;-84
2021/09/05 09:42:37;;;;;;;7.40;2.38;;;;;;;12.57;49.48;99876.06;5099866;27;20547;-81
2021/09/05 09:45:10;;;;;;;27.67;21.90;;;;;;;12.75;49.57;99881.69;5134913;28;20043;-78
2021/09/05 09:47:47;;;;;;;6.78;2.42;;;;;;;12.43;48.81;99887.81;5117268;28;20047;-82
2021/09/05 09:50:15;;;;;;;5.57;2.35;;;;;;;12.57;48.95;99884.88;5082449;28;20115;-80
2021/09/05 09:52:41;;;;;;;5.45;2.22;;;;;;;12.49;47.85;99891.78;5116425;28;20039;-80
2021/09/05 09:55:07;;;;;;;7.95;2.70;;;;;;;12.40;47.64;99886.25;5103714;28;20047;-78
2021/09/05 09:57:33;;;;;;;7.13;2.35;;;;;;;12.40;47.90;99888.06;5101388;28;20528;-78
2021/09/05 10:00:04;;;;;;;8.00;3.85;;;;;;;12.43;47.97;99891.31;5121523;28;20047;-80
2021/09/05 10:02:42;;;;;;;14.48;2.83;;;;;;;12.16;48.15;99898.84;5138230;28;20047;-82
2021/09/05 10:05:19;;;;;;;4.97;2.50;;;;;;;11.91;49.15;99904.28;5073504;28;20560;-81
2021/09/05 10:07:49;;;;;;;8.38;3.15;;;;;;;11.92;49.66;99911.25;5092435;28;20050;-80
2021/09/05 10:10:14;;;;;;;6.20;3.00;;;;;;;11.73;50.89;99906.56;5100982;28;20063;-81
2021/09/05 10:12:41;;;;;;;11.00;3.50;;;;;;;11.85;51.22;99904.75;5097642;28;20039;-78
2021/09/05 10:15:08;;;;;;;8.07;2.97;;;;;;;11.64;51.84;99907.28;5100733;27;20035;-81
2021/09/05 10:17:36;;;;;;;9.03;2.47;;;;;;;11.74;51.75;99913.53;5105090;27;20126;-81
2021/09/05 10:20:04;;;;;;;13.77;3.35;;;;;;;11.79;51.69;99908.72;5088231;27;20332;-81
2021/09/05 10:22:31;;;;;;;5.40;2.50;;;;;;;12.01;51.82;99909.69;5121358;27;20154;-81
2021/09/05 10:25:00;;;;;;;6.63;2.67;;;;;;;11.82;51.10;99915.59;5084320;27;20504;-84
2021/09/05 10:27:31;;;;;;;8.98;3.72;;;;;;;11.73;51.83;99909.19;5085944;27;20557;-81
2021/09/05 10:30:11;;;;;;;9.73;3.47;;;;;;;11.85;51.39;99903.91;5100954;27;20039;-82
2021/09/05 10:32:55;;;;;;;6.40;2.50;;;;;;;12.17;50.74;99913.78;5107837;27;20039;-84
2021/09/05 10:35:25;;;;;;;7.63;2.72;;;;;;;12.30;50.20;99915.34;5087728;27;20443;-82
2021/09/05 10:38:10;;;;;;;7.85;2.85;;;;;;;12.39;49.80;99919.06;5124359;27;20050;-83
2021/09/05 10:40:51;;;;;;;11.93;4.35;;;;;;;12.51;49.47;99911.06;5082333;28;20040;-80
2021/09/05 10:43:18;;;;;;;13.45;6.20;;;;;;;12.51;50.13;99914.56;5116842;28;20040;-81
2021/09/05 10:45:55;;;;;;;14.40;5.88;;;;;;;12.54;49.75;99916.97;5098387;28;20040;-84
2021/09/05 10:48:38;;;;;;;13.07;4.75;;;;;;;12.69;49.57;99908.72;5067560;28;20039;-83
2021/09/05 10:51:11;;;;;;;10.35;3.92;;;;;;;12.59;49.22;99916.59;5087548;28;20043;-82
2021/09/05 10:54:00;;;;;;;7.30;3.60;;;;;;;12.53;49.09;99915.28;5069230;28;20058;-81
2021/09/05 10:56:31;;;;;;;14.13;4.28;;;;;;;12.31;49.76;99913.50;5085636;27;20043;-80
2021/09/05 10:59:08;;;;;;;4.50;2.25;;;;;;;12.23;49.62;99914.13;5088853;27;20050;-82
2021/09/05 11:01:57;;;;;;;3.85;2.33;;;;;;;12.45;48.67;99913.25;5124759;27;20035;-81
2021/09/05 11:04:40;;;;;;;10.25;3.38;;;;;;;12.67;48.06;99916.78;5105888;27;20108;-80
2021/09/05 11:07:09;;;;;;;10.98;4.45;;;;;;;12.83;47.97;99912.91;5070289;27;20142;-81
2021/09/05 11:09:35;;;;;;;15.48;6.60;;;;;;;12.85;48.16;99918.94;5109045;27;20160;-81
2021/09/05 11:12:11;;;;;;;19.63;5.72;;;;;;;12.79;47.94;99920.25;5101877;27;20106;-80
2021/09/05 11:14:40;;;;;;;17.25;6.05;;;;;;;12.68;48.02;99918.47;5103193;27;20047;-83
2021/09/05 11:17:07;;;;;;;10.13;4.85;;;;;;;12.98;47.93;99916.91;5104366;27;20130;-78
2021/09/05 11:19:47;;;;;;;18.15;11.32;;;;;;;13.14;47.66;99915.66;5103129;27;20035;-82
2021/09/05 11:22:18;;;;;;;10.25;5.03;;;;;;;13.56;46.71;99910.34;5121396;27;20038;-83
2021/09/05 11:24:46;;;;;;;11.93;5.72;;;;;;;13.35;46.29;99911.16;5103875;27;20061;-84
2021/09/05 11:27:14;;;;;;;10.18;5.75;;;;;;;13.24;46.27;99908.56;5103678;27;20110;-80
2021/09/05 11:29:41;;;;;;;9.85;3.47;;;;;;;13.21;46.44;99908.84;5103375;27;20085;-84
2021/09/05 11:32:12;;;;;;;12.27;4.25;;;;;;;13.39;46.10;99914.44;5090712;27;20156;-81
2021/09/05 11:34:51;;;;;;;6.90;3.63;;;;;;;13.58;45.82;99916.34;5105399;27;20039;-80
2021/09/05 11:37:33;;;;;;;9.13;3.40;;;;;;;13.73;45.71;99915.03;5138166;27;20058;-84
2021/09/05 11:40:16;;;;;;;11.48;3.03;;;;;;;14.00;44.98;99905.63;5087254;27;20039;-82
2021/09/05 11:42:48;;;;;;;6.55;3.13;;;;;;;13.96;44.66;99911.38;5069301;27;20076;-82
2021/09/05 11:45:16;;;;;;;7.07;3.05;;;;;;;13.79;44.74;99916.31;5140631;27;20043;-83
2021/09/05 11:47:43;;;;;;;15.63;5.07;;;;;;;13.62;44.97;99911.63;5087345;27;20067;-82
2021/09/05 11:50:11;;;;;;;5.93;3.42;;;;;;;13.87;45.08;99913.00;5120016;27;20092;-79
2021/09/05 11:52:39;;;;;;;11.45;5.38;;;;;;;14.21;43.83;99908.19;5141073;27;20518;-82
2021/09/05 11:55:14;;;;;;;11.88;5.35;;;;;;;14.51;43.04;99905.63;5071753;27;20046;-82
2021/09/05 11:58:01;;;;;;;8.57;3.90;;;;;;;14.39;43.63;99908.41;5103652;27;20063;-80